Time;durP1;ratioP1;P1;durP2;ratioP2;P2;SDS_P1;SDS_P2;PMS_P1;PMS_P2;Temp;Humidity;BMP_temperature;BMP_pressure;BME280_temperature;BME280_humidity;BME280_pressure;Samples;Min_cycle;Max_cycle;Signal;HPM_P1;HPM_P2
2021/12/07 00:07:43;;;;;;;46.75;18.28;;;;;;;-1.88;89.70;100314.58;714289;1203;114225;-72
2021/12/07 00:22:51;;;;;;;26.90;12.13;;;;;;;-1.95;89.07;100300.27;714406;1200;114079;-72
2021/12/07 00:37:56;;;;;;;36.83;15.75;;;;;;;-1.93;89.65;100311.33;714117;1176;114551;-72
2021/12/07 00:53:02;;;;;;;;;;;;;;;-2.09;89.36;100312.78;714292;1177;114126;-72
2021/12/07 02:09:12;;;;;;;20.85;10.15;;;;;;;-2.18;89.17;100334.48;713936;1205;114436;-72
2021/12/07 02:24:16;;;;;;;20.50;10.10;;;;;;;-2.07;89.12;100332.40;714096;1200;115873;-72
2021/12/07 02:39:27;;;;;;;19.88;10.10;;;;;;;-2.08;88.59;100325.57;714186;1202;114286;-72
2021/12/07 02:54:32;;;;;;;27.50;11.97;;;;;;;-2.14;88.50;100343.77;714268;1177;114158;-71
2021/12/07 03:40:15;;;;;;;28.33;12.73;;;;;;;-2.15;88.61;100351.55;714476;1200;114246;-73
2021/12/07 03:55:18;;;;;;;32.98;13.85;;;;;;;-2.23;88.87;100342.38;715638;1177;114522;-71
2021/12/07 04:10:25;;;;;;;33.60;15.67;;;;;;;-2.39;88.92;100356.61;715096;1185;115566;-71
2021/12/07 04:25:28;;;;;;;37.90;15.00;;;;;;;-2.53;89.19;100349.38;715491;1177;114206;-72
2021/12/07 04:40:32;;;;;;;39.63;17.55;;;;;;;-2.43;89.36;100344.77;723873;1177;114132;-77
2021/12/07 05:34:35;;;;;;;64.23;22.23;;;;;;;-2.59;89.13;100340.13;714108;1200;115323;-73
2021/12/07 05:41:31;;;;;;;34.23;14.33;;;;;;;-2.53;89.40;100342.50;715356;1177;114498;-72
2021/12/07 05:56:34;;;;;;;34.67;14.10;;;;;;;-2.62;89.50;100363.34;715410;1200;114485;-74
2021/12/07 06:11:36;;;;;;;43.55;18.65;;;;;;;-2.81;89.64;100364.81;714496;1200;115395;-73
2021/12/07 06:26:39;;;;;;;68.30;24.88;;;;;;;-2.73;89.74;100366.27;714316;1205;115668;-74
2021/12/07 06:41:41;;;;;;;228.43;62.35;;;;;;;-2.72;89.79;100385.08;714257;1206;114611;-73
2021/12/07 06:56:43;;;;;;;94.33;38.18;;;;;;;-2.69;90.16;100392.70;714324;1200;116451;-73
2021/12/07 07:11:45;;;;;;;85.95;28.55;;;;;;;-2.52;90.19;100426.40;714063;1205;114963;-73
2021/12/07 07:26:48;;;;;;;116.78;33.43;;;;;;;-2.45;89.96;100421.91;713853;1204;114567;-69
2021/12/07 07:41:51;;;;;;;206.40;52.07;;;;;;;-2.26;90.29;100447.01;714025;1200;115258;-69
2021/12/07 07:56:53;;;;;;;57.48;21.23;;;;;;;-2.13;89.77;100445.72;713992;1200;114767;-71
2021/12/07 08:11:55;;;;;;;39.63;16.67;;;;;;;-2.06;89.45;100456.64;714162;1204;114177;-70
2021/12/07 08:26:57;;;;;;;111.63;36.20;;;;;;;-1.93;89.76;100477.66;713935;1178;114267;-71
2021/12/07 08:42:19;;;;;;;54.88;22.18;;;;;;;-1.71;89.25;100482.92;714057;1200;114371;-70
2021/12/07 09:12:44;;;;;;;74.00;27.17;;;;;;;-1.47;89.29;100483.80;715114;1199;114887;-70
2021/12/07 09:27:47;;;;;;;75.08;29.15;;;;;;;-1.19;88.58;100485.40;715601;1177;113997;-69
2021/12/07 09:42:52;;;;;;;169.20;55.78;;;;;;;-1.10;88.52;100476.52;714759;1200;114174;-70
2021/12/07 09:57:55;;;;;;;243.70;66.18;;;;;;;-1.09;87.54;100470.47;714810;1200;114347;-69
2021/12/07 10:12:58;;;;;;;115.25;36.75;;;;;;;-1.09;87.36;100471.30;715315;1200;114289;-69
2021/12/07 10:28:01;;;;;;;76.17;29.47;;;;;;;-0.96;86.90;100471.70;715271;1178;114439;-70
2021/12/07 10:43:03;;;;;;;120.75;43.75;;;;;;;-1.06;86.47;100463.45;715078;1200;114607;-70
2021/12/07 10:58:12;;;;;;;119.50;35.00;;;;;;;-0.92;86.38;100482.73;714882;1191;115404;-70
2021/12/07 11:13:26;;;;;;;110.25;40.13;;;;;;;-0.68;85.75;100499.82;715027;1193;114800;-70
2021/12/07 11:44:06;;;;;;;226.57;61.43;;;;;;;-0.88;85.92;100469.66;714983;1175;113953;-70
2021/12/07 11:59:09;;;;;;;133.48;47.75;;;;;;;-0.67;84.68;100480.06;715236;1177;115029;-70
2021/12/07 12:14:39;;;;;;;159.17;53.20;;;;;;;-0.59;84.98;100478.03;715067;1200;114635;-73
2021/12/07 12:29:44;;;;;;;127.53;43.23;;;;;;;-0.64;84.80;100476.53;714870;1200;114948;-71
2021/12/07 12:44:49;;;;;;;124.73;45.67;;;;;;;-0.60;85.37;100471.19;715115;1203;114699;-73
2021/12/07 12:59:51;;;;;;;95.30;30.65;;;;;;;-0.65;85.21;100480.83;715422;1177;114089;-73
2021/12/07 13:15:12;;;;;;;120.85;40.08;;;;;;;-0.86;84.70;100477.33;716055;1202;117091;-72
2021/12/07 13:30:19;;;;;;;154.33;48.60;;;;;;;-0.99;84.81;100486.41;716978;1205;114183;-72
2021/12/07 13:45:23;;;;;;;214.08;58.28;;;;;;;-0.99;85.14;100487.27;715630;1200;114671;-72
2021/12/07 14:00:31;;;;;;;202.45;64.80;;;;;;;-1.44;84.75;100499.16;716400;1177;114419;-72
2021/12/07 14:15:40;;;;;;;163.73;54.43;;;;;;;-1.92;84.95;100499.91;715360;1202;114628;-73
2021/12/07 14:30:44;;;;;;;119.25;40.00;;;;;;;-2.36;85.18;100501.27;714708;1199;114788;-73
2021/12/07 14:45:46;;;;;;;432.80;133.80;;;;;;;-2.72;84.95;100518.63;715102;1200;115391;-72
2021/12/07 15:00:49;;;;;;;128.53;47.58;;;;;;;-3.05;85.34;100522.13;714803;1177;115349;-72
2021/12/07 15:15:54;;;;;;;191.50;64.13;;;;;;;-3.35;85.99;100518.67;714779;1183;114302;-72
2021/12/07 15:30:57;;;;;;;204.53;56.73;;;;;;;-3.58;86.95;100539.78;714814;1174;115621;-72
2021/12/07 15:46:20;;;;;;;237.70;70.48;;;;;;;-3.65;87.28;100538.27;714949;1200;114288;-72
2021/12/07 16:01:23;;;;;;;146.05;42.25;;;;;;;-3.78;86.35;100556.50;714906;1200;114794;-72
2021/12/07 16:16:29;;;;;;;279.93;79.37;;;;;;;-3.72;86.73;100540.11;714624;1204;114706;-74
2021/12/07 16:31:34;;;;;;;367.93;116.50;;;;;;;-3.97;87.02;100555.25;715017;1199;115716;-74
2021/12/07 16:46:39;;;;;;;420.00;124.03;;;;;;;-4.04;86.92;100554.55;715121;1200;115751;-75
2021/12/07 17:01:42;;;;;;;412.53;122.80;;;;;;;-4.08;87.70;100578.58;717063;1202;115888;-75
2021/12/07 17:16:45;;;;;;;292.25;84.90;;;;;;;-4.07;87.09;100577.70;715410;1177;114711;-72
2021/12/07 17:31:48;;;;;;;556.15;155.40;;;;;;;-4.21;86.18;100570.31;715427;1177;114547;-73
2021/12/07 17:46:54;;;;;;;349.85;102.93;;;;;;;-4.28;86.41;100582.42;715612;1175;114881;-74
2021/12/07 18:01:59;;;;;;;363.35;107.30;;;;;;;-4.44;86.38;100579.34;715231;1178;114804;-74
2021/12/07 18:17:02;;;;;;;370.67;104.63;;;;;;;-4.53;86.33;100597.47;715787;1187;114361;-73
2021/12/07 18:32:20;;;;;;;368.40;90.03;;;;;;;-4.62;86.99;100578.03;715622;1177;114568;-73
2021/12/07 18:47:23;;;;;;;330.00;84.50;;;;;;;-4.57;86.40;100568.51;715643;1200;114443;-74
2021/12/07 19:02:27;;;;;;;283.68;74.43;;;;;;;-4.69;86.26;100584.13;715231;1205;114338;-73
2021/12/07 19:17:29;;;;;;;314.77;76.17;;;;;;;-4.82;86.67;100580.97;715176;1176;114279;-74
2021/12/07 19:32:33;;;;;;;270.93;72.43;;;;;;;-4.66;87.01;100601.98;714937;1192;114154;-74
2021/12/07 19:47:37;;;;;;;430.03;105.13;;;;;;;-4.66;86.21;100585.80;715066;1200;115714;-72
2021/12/07 20:02:40;;;;;;;222.73;55.27;;;;;;;-4.92;86.37;100587.13;715002;1200;114411;-75
2021/12/07 20:17:45;;;;;;;348.57;76.10;;;;;;;-4.95;87.09;100576.97;714932;1200;115811;-72
2021/12/07 20:32:47;;;;;;;191.57;49.20;;;;;;;-5.27;87.30;100586.92;716277;1177;115463;-74
2021/12/07 20:47:51;;;;;;;238.50;61.40;;;;;;;-5.29;88.87;100575.89;714282;1193;114868;-77
2021/12/07 21:02:54;;;;;;;80.48;26.73;;;;;;;-5.22;88.98;100590.24;714380;1205;115603;-75
2021/12/07 21:17:58;;;;;;;;;;;;;;;-5.29;89.55;100583.56;714385;1202;114440;-74
2021/12/07 21:33:02;;;;;;;172.50;41.70;;;;;;;-5.11;89.33;100572.13;714201;1205;100053;-75
2021/12/07 21:48:05;;;;;;;138.80;30.33;;;;;;;-5.26;88.99;100578.38;713880;1203;114633;-74
2021/12/07 22:03:11;;;;;;;63.73;18.73;;;;;;;-5.27;90.18;100579.24;713974;1203;115315;-74
2021/12/07 22:18:13;;;;;;;95.60;25.30;;;;;;;-5.30;90.29;100574.19;713942;1177;115225;-73
2021/12/07 22:33:17;;;;;;;127.67;29.30;;;;;;;-4.88;91.22;100556.34;714194;1177;114047;-73
2021/12/07 22:48:20;;;;;;;64.08;20.83;;;;;;;-4.98;90.70;100541.20;714264;1205;114250;-73
2021/12/07 23:03:25;;;;;;;56.53;16.80;;;;;;;-4.98;90.53;100516.45;713882;1202;114571;-73
2021/12/07 23:18:30;;;;;;;85.07;23.03;;;;;;;-5.29;90.71;100529.84;713906;1175;114080;-73
2021/12/07 23:33:33;;;;;;;67.00;19.53;;;;;;;-5.18;90.96;100534.75;714109;1174;114390;-74
2021/12/07 23:48:36;;;;;;;51.00;17.20;;;;;;;-5.07;91.32;100526.87;713866;1202;115509;-73
